createdAt,value
2023-01-30T00:01:44.691Z,26.43
2023-01-30T00:04:12.529Z,24.03
2023-01-30T00:06:41.006Z,22.30
2023-01-30T00:09:10.583Z,22.90
2023-01-30T00:11:37.284Z,24.13
2023-01-30T00:14:04.158Z,26.17
2023-01-30T00:16:31.069Z,23.20
2023-01-30T00:18:57.891Z,24.00
2023-01-30T00:21:24.635Z,24.93
2023-01-30T00:23:51.550Z,23.03
2023-01-30T00:26:18.385Z,18.40
2023-01-30T00:28:45.488Z,24.63
2023-01-30T00:31:12.496Z,25.00
2023-01-30T00:33:39.664Z,24.43
2023-01-30T00:36:07.150Z,24.10
2023-01-30T00:38:34.131Z,25.27
2023-01-30T00:41:01.104Z,23.03
2023-01-30T00:43:46.746Z,25.33
2023-01-30T00:46:48.297Z,24.27
2023-01-30T00:49:15.689Z,25.47
2023-01-30T00:51:42.467Z,23.07
2023-01-30T00:54:09.239Z,24.77
2023-01-30T00:56:36.289Z,24.03
2023-01-30T00:59:03.193Z,26.23
2023-01-30T01:01:30.179Z,25.60
2023-01-30T01:03:57.119Z,26.50
2023-01-30T01:06:23.892Z,25.60
2023-01-30T01:08:50.952Z,26.03
2023-01-30T01:11:24.443Z,25.37
2023-01-30T01:13:56.163Z,26.87
2023-01-30T01:16:23.524Z,26.27
2023-01-30T01:18:51.467Z,27.90
2023-01-30T01:21:20.305Z,27.20
2023-01-30T01:23:56.375Z,25.17
2023-01-30T01:26:23.438Z,29.63
2023-01-30T01:28:53.941Z,24.33
2023-01-30T01:31:20.969Z,28.17
2023-01-30T01:33:47.866Z,28.47
2023-01-30T01:36:29.311Z,28.93
2023-01-30T01:39:01.875Z,27.67
2023-01-30T01:41:28.696Z,28.17
2023-01-30T01:44:09.154Z,25.60
2023-01-30T01:46:50.400Z,28.43
2023-01-30T01:49:27.852Z,24.93
2023-01-30T01:52:06.012Z,25.90
2023-01-30T01:54:45.525Z,29.50
2023-01-30T01:57:23.422Z,28.90
2023-01-30T01:59:55.293Z,28.90
2023-01-30T02:02:22.403Z,27.20
2023-01-30T02:05:05.134Z,31.10
2023-01-30T02:07:41.105Z,31.33
2023-01-30T02:10:10.838Z,31.40
2023-01-30T02:12:39.273Z,28.17
2023-01-30T02:15:06.883Z,31.30
2023-01-30T02:17:33.803Z,27.87
2023-01-30T02:20:20.808Z,32.70
2023-01-30T02:23:17.178Z,29.20
2023-01-30T02:26:12.334Z,32.10
2023-01-30T02:28:41.883Z,32.67
2023-01-30T02:31:26.449Z,32.53
2023-01-30T02:34:28.601Z,28.07
2023-01-30T02:37:28.809Z,32.67
2023-01-30T02:40:12.979Z,27.53
2023-01-30T02:42:51.892Z,30.47
2023-01-30T02:45:40.256Z,26.10
2023-01-30T02:48:11.145Z,30.20
2023-01-30T02:50:43.715Z,24.40
2023-01-30T02:53:10.677Z,28.50
2023-01-30T02:55:42.282Z,29.87
2023-01-30T02:58:10.694Z,25.00
2023-01-30T03:01:07.473Z,27.53
2023-01-30T03:03:52.972Z,27.57
2023-01-30T03:06:31.957Z,26.53
2023-01-30T03:09:15.753Z,30.17
2023-01-30T03:12:17.938Z,28.93
2023-01-30T03:14:49.958Z,25.70
2023-01-30T03:17:20.999Z,29.63
2023-01-30T03:19:47.834Z,31.00
2023-01-30T03:22:14.727Z,28.57
2023-01-30T03:24:43.090Z,27.33
2023-01-30T03:27:12.933Z,28.20
2023-01-30T03:29:40.467Z,27.07
2023-01-30T03:32:07.588Z,27.73
2023-01-30T03:34:34.440Z,25.70
2023-01-30T03:37:01.407Z,27.00
2023-01-30T03:39:28.325Z,27.47
2023-01-30T03:41:55.361Z,23.80
2023-01-30T03:44:22.154Z,28.13
2023-01-30T03:46:49.144Z,27.33
2023-01-30T03:49:16.079Z,25.40
2023-01-30T03:51:42.819Z,26.97
2023-01-30T03:54:09.664Z,27.07
2023-01-30T03:56:36.406Z,28.27
2023-01-30T03:59:04.054Z,26.40
2023-01-30T04:01:31.172Z,27.97
2023-01-30T04:03:58.213Z,25.47
2023-01-30T04:06:24.994Z,26.47
2023-01-30T04:08:54.959Z,28.07
2023-01-30T04:11:21.988Z,28.97
2023-01-30T04:13:48.791Z,26.83
2023-01-30T04:16:18.434Z,27.73
2023-01-30T04:18:45.443Z,23.20
2023-01-30T04:21:13.157Z,28.07
2023-01-30T04:23:40.082Z,27.77
2023-01-30T04:26:08.136Z,29.07
2023-01-30T04:28:35.483Z,28.00
2023-01-30T04:31:02.865Z,28.43
2023-01-30T04:33:30.020Z,29.17
2023-01-30T04:36:01.318Z,28.47
2023-01-30T04:38:29.790Z,24.97
2023-01-30T04:40:57.590Z,23.90
2023-01-30T04:43:25.718Z,29.00
2023-01-30T04:45:53.000Z,28.47
2023-01-30T04:48:22.284Z,27.20
2023-01-30T04:50:53.812Z,27.33
2023-01-30T04:53:21.062Z,26.83
2023-01-30T04:55:48.711Z,22.00
2023-01-30T04:58:16.358Z,27.67
2023-01-30T05:00:43.216Z,31.50
2023-01-30T05:03:10.105Z,27.27
2023-01-30T05:05:37.083Z,27.00
2023-01-30T05:08:04.196Z,28.37
2023-01-30T05:10:31.317Z,26.67
2023-01-30T05:13:05.683Z,26.53
2023-01-30T05:15:33.266Z,27.37
2023-01-30T05:18:00.312Z,24.33
2023-01-30T05:20:27.163Z,24.47
2023-01-30T05:22:53.939Z,22.27
2023-01-30T05:25:21.408Z,23.00
2023-01-30T05:27:48.141Z,22.07
2023-01-30T05:30:15.073Z,22.60
2023-01-30T05:32:41.937Z,19.77
2023-01-30T05:35:09.149Z,20.77
2023-01-30T05:37:37.748Z,20.07
2023-01-30T05:40:05.113Z,21.17
2023-01-30T05:42:31.962Z,20.90
2023-01-30T05:44:58.703Z,18.27
2023-01-30T05:47:25.487Z,18.20
2023-01-30T05:49:52.238Z,18.93
2023-01-30T05:52:19.009Z,16.40
2023-01-30T05:54:45.895Z,15.60
2023-01-30T05:57:13.213Z,15.73
2023-01-30T05:59:40.014Z,17.13
2023-01-30T06:02:07.184Z,15.17
2023-01-30T06:04:34.334Z,14.20
2023-01-30T06:07:01.881Z,14.07
2023-01-30T06:09:28.656Z,13.63
2023-01-30T06:11:55.712Z,12.23
2023-01-30T06:14:22.548Z,12.50
2023-01-30T06:16:49.529Z,11.93
2023-01-30T06:19:16.543Z,13.33
2023-01-30T06:21:43.600Z,12.83
2023-01-30T06:24:10.326Z,12.23
2023-01-30T06:26:37.134Z,12.17
2023-01-30T06:29:03.950Z,12.63
2023-01-30T06:31:30.798Z,12.87
2023-01-30T06:33:57.581Z,11.30
2023-01-30T06:36:24.584Z,11.83
2023-01-30T06:38:51.321Z,11.10
2023-01-30T06:41:18.130Z,11.50
2023-01-30T06:43:45.008Z,11.73
2023-01-30T06:46:11.786Z,10.67
2023-01-30T06:48:38.595Z,11.63
2023-01-30T06:51:05.527Z,11.70
2023-01-30T06:53:32.333Z,12.23
2023-01-30T06:55:59.843Z,12.37
2023-01-30T06:58:26.948Z,11.93
2023-01-30T07:00:54.088Z,12.47
2023-01-30T07:03:20.920Z,12.57
2023-01-30T07:05:48.325Z,12.07
2023-01-30T07:08:16.625Z,11.57
2023-01-30T07:10:44.355Z,11.63
2023-01-30T07:13:11.366Z,10.50
2023-01-30T07:15:38.288Z,10.83
2023-01-30T07:18:05.211Z,10.93
2023-01-30T07:20:32.165Z,12.53
2023-01-30T07:22:59.298Z,9.87
2023-01-30T07:25:31.670Z,10.63
2023-01-30T07:28:02.597Z,9.33
2023-01-30T07:30:32.394Z,7.80
2023-01-30T07:33:00.599Z,8.00
2023-01-30T07:35:29.766Z,8.80
2023-01-30T07:37:57.085Z,7.83
2023-01-30T07:40:24.609Z,7.73
2023-01-30T07:43:14.630Z,6.83
2023-01-30T07:45:47.051Z,7.83
2023-01-30T07:48:16.873Z,7.67
2023-01-30T07:50:44.609Z,6.87
2023-01-30T07:53:13.759Z,6.50
2023-01-30T07:55:40.774Z,6.63
2023-01-30T07:58:07.687Z,6.30
2023-01-30T08:00:36.221Z,5.93
2023-01-30T08:03:03.130Z,5.80
2023-01-30T08:05:30.183Z,4.73
2023-01-30T08:07:57.577Z,3.47
2023-01-30T08:10:25.093Z,3.03
2023-01-30T08:12:52.269Z,3.00
2023-01-30T08:15:20.647Z,3.70
2023-01-30T08:17:56.119Z,3.23
2023-01-30T08:20:23.258Z,3.17
2023-01-30T08:22:50.150Z,3.10
2023-01-30T08:25:17.079Z,2.80
2023-01-30T08:27:43.971Z,3.30
2023-01-30T08:30:11.970Z,2.80
2023-01-30T08:32:38.887Z,2.50
2023-01-30T08:35:06.213Z,3.27
2023-01-30T08:37:33.028Z,2.67
2023-01-30T08:39:59.827Z,2.97
2023-01-30T08:42:26.795Z,3.20
2023-01-30T08:44:54.991Z,2.27
2023-01-30T08:47:21.849Z,2.37
2023-01-30T08:49:48.743Z,2.70
2023-01-30T08:52:15.737Z,3.03
2023-01-30T08:54:42.569Z,2.67
2023-01-30T08:57:09.690Z,2.37
2023-01-30T08:59:36.502Z,3.10
2023-01-30T09:02:03.393Z,2.60
2023-01-30T09:04:30.872Z,3.23
2023-01-30T09:06:57.775Z,3.00
2023-01-30T09:09:24.934Z,2.27
2023-01-30T09:11:52.098Z,2.73
2023-01-30T09:14:19.916Z,3.67
2023-01-30T09:16:48.384Z,2.60
2023-01-30T09:19:15.835Z,2.90
2023-01-30T09:21:43.003Z,2.77
2023-01-30T09:24:09.851Z,2.50
2023-01-30T09:26:36.956Z,2.57
2023-01-30T09:29:03.798Z,3.07
2023-01-30T09:31:31.131Z,2.80
2023-01-30T09:33:57.951Z,2.93
2023-01-30T09:36:24.786Z,3.20
2023-01-30T09:38:51.605Z,3.60
2023-01-30T09:41:32.048Z,3.10
2023-01-30T09:44:14.910Z,3.40
2023-01-30T09:46:47.781Z,2.90
2023-01-30T09:49:26.509Z,2.70
2023-01-30T09:52:12.650Z,3.40
2023-01-30T09:54:42.876Z,3.93
2023-01-30T09:57:25.679Z,3.20
2023-01-30T10:00:04.881Z,3.80
2023-01-30T10:02:51.103Z,2.73
2023-01-30T10:05:18.363Z,3.57
2023-01-30T10:07:51.531Z,3.00
2023-01-30T10:10:32.719Z,3.10
2023-01-30T10:13:25.339Z,3.33
2023-01-30T10:16:10.988Z,3.50
2023-01-30T10:19:08.328Z,3.33
2023-01-30T10:21:50.832Z,2.23
2023-01-30T10:24:54.894Z,3.70
2023-01-30T10:27:24.191Z,3.33
2023-01-30T10:29:59.122Z,3.10
2023-01-30T10:32:52.188Z,3.00
2023-01-30T10:35:31.051Z,2.63
2023-01-30T10:38:31.681Z,3.13
2023-01-30T10:41:21.199Z,2.87
2023-01-30T10:44:20.576Z,2.90
2023-01-30T10:46:56.898Z,3.50
2023-01-30T10:49:44.977Z,2.80
2023-01-30T10:52:21.479Z,3.40
2023-01-30T10:55:18.132Z,2.27
2023-01-30T10:57:53.493Z,3.73
2023-01-30T11:01:13.103Z,3.10
2023-01-30T11:03:51.938Z,2.60
2023-01-30T11:06:28.388Z,3.07
2023-01-30T11:08:57.978Z,3.50
2023-01-30T11:11:52.035Z,3.17
2023-01-30T11:14:19.258Z,2.53
2023-01-30T11:16:57.046Z,3.40
2023-01-30T11:19:31.088Z,2.83
2023-01-30T11:22:02.832Z,2.90
2023-01-30T11:24:41.560Z,3.20
2023-01-30T11:27:19.164Z,3.20
2023-01-30T11:29:47.865Z,3.80
2023-01-30T11:32:27.701Z,3.33
2023-01-30T11:35:15.156Z,3.40
2023-01-30T11:37:45.925Z,3.90
2023-01-30T11:40:19.341Z,3.80
2023-01-30T11:42:49.983Z,3.57
2023-01-30T11:45:20.011Z,3.60
2023-01-30T11:47:59.655Z,3.83
2023-01-30T11:51:32.236Z,3.60
2023-01-30T11:53:46.127Z,3.37
2023-01-30T11:56:27.504Z,2.20
2023-01-30T11:58:59.055Z,2.47
2023-01-30T12:01:35.686Z,3.20
2023-01-30T12:04:08.383Z,2.73
2023-01-30T12:06:38.542Z,3.43
2023-01-30T12:09:07.040Z,3.07
2023-01-30T12:11:36.596Z,3.50
2023-01-30T12:14:25.644Z,2.47
2023-01-30T12:17:14.404Z,4.23
2023-01-30T12:20:00.695Z,2.70
2023-01-30T12:22:46.096Z,2.53
2023-01-30T12:25:22.267Z,2.77
2023-01-30T12:27:49.139Z,2.93
2023-01-30T12:33:07.352Z,2.73
2023-01-30T12:35:57.803Z,3.53
2023-01-30T12:38:39.842Z,2.70
2023-01-30T12:41:20.027Z,3.93
2023-01-30T12:43:52.982Z,2.73
2023-01-30T12:46:38.596Z,2.93
2023-01-30T12:49:34.126Z,2.10
2023-01-30T12:52:30.254Z,2.13
2023-01-30T12:55:22.815Z,1.80
2023-01-30T12:58:00.190Z,1.83
2023-01-30T13:00:48.976Z,2.60
2023-01-30T13:03:33.123Z,2.00
2023-01-30T13:06:16.176Z,2.00
2023-01-30T13:09:04.782Z,1.93
2023-01-30T13:11:41.835Z,1.90
2023-01-30T13:14:11.503Z,2.50
2023-01-30T13:17:00.807Z,1.40
2023-01-30T13:19:55.053Z,1.40
2023-01-30T13:22:46.538Z,1.77
2023-01-30T13:25:38.589Z,1.50
2023-01-30T13:28:19.057Z,2.07
2023-01-30T13:30:49.646Z,2.47
2023-01-30T13:33:22.449Z,2.30
2023-01-30T13:36:12.661Z,2.43
2023-01-30T13:38:49.391Z,2.40
2023-01-30T13:41:18.776Z,2.70
2023-01-30T13:43:53.173Z,2.70
2023-01-30T13:46:27.591Z,2.13
2023-01-30T13:49:00.482Z,2.17
2023-01-30T13:51:45.381Z,1.63
2023-01-30T13:54:43.605Z,2.03
2023-01-30T13:57:24.446Z,2.03
2023-01-30T14:00:19.738Z,2.10
2023-01-30T14:03:08.602Z,1.67
2023-01-30T14:05:55.016Z,1.60
2023-01-30T14:08:25.686Z,1.30
2023-01-30T14:10:55.859Z,1.97
2023-01-30T14:13:25.397Z,1.93
2023-01-30T14:16:04.628Z,2.53
2023-01-30T14:18:36.056Z,2.67
2023-01-30T14:21:20.352Z,2.37
2023-01-30T14:24:04.993Z,2.50
2023-01-30T14:26:58.042Z,2.97
2023-01-30T14:29:43.311Z,2.00
2023-01-30T14:32:13.496Z,2.60
2023-01-30T14:34:44.396Z,2.13
2023-01-30T14:37:41.588Z,1.77
2023-01-30T14:40:23.674Z,1.60
2023-01-30T14:43:12.320Z,1.93
2023-01-30T14:46:07.470Z,1.40
2023-01-30T14:49:05.362Z,1.93
2023-01-30T14:51:48.571Z,1.37
2023-01-30T14:54:15.542Z,1.83
2023-01-30T14:57:22.064Z,1.60
2023-01-30T15:00:14.132Z,1.77
2023-01-30T15:02:49.286Z,1.93
2023-01-30T15:05:21.591Z,1.43
2023-01-30T15:08:25.536Z,2.37
2023-01-30T15:11:06.147Z,1.97
2023-01-30T15:13:50.368Z,1.43
2023-01-30T15:16:36.751Z,1.67
2023-01-30T15:19:04.389Z,2.27
2023-01-30T15:21:55.695Z,2.33
2023-01-30T15:24:42.510Z,2.57
2023-01-30T15:27:31.741Z,2.60
2023-01-30T15:30:20.380Z,1.80
2023-01-30T15:32:47.515Z,1.87
2023-01-30T15:35:20.070Z,2.83
2023-01-30T15:37:49.617Z,2.40
2023-01-30T15:40:17.004Z,2.07
2023-01-30T15:42:54.672Z,2.10
2023-01-30T15:45:59.264Z,2.37
2023-01-30T15:48:29.270Z,2.03
2023-01-30T15:51:00.609Z,2.37
2023-01-30T15:53:32.396Z,2.53
2023-01-30T15:56:02.114Z,2.47
2023-01-30T15:58:30.585Z,2.63
2023-01-30T16:01:00.845Z,1.67
2023-01-30T16:03:32.872Z,1.60
2023-01-30T16:06:00.916Z,2.63
2023-01-30T16:08:36.826Z,2.07
2023-01-30T16:11:04.385Z,2.30
2023-01-30T16:13:35.952Z,1.93
2023-01-30T16:16:13.588Z,2.53
2023-01-30T16:18:57.272Z,2.70
2023-01-30T16:21:40.860Z,2.30
2023-01-30T16:24:27.668Z,2.30
2023-01-30T16:27:00.838Z,2.43
2023-01-30T16:29:33.676Z,2.37
2023-01-30T16:32:01.122Z,3.20
2023-01-30T16:34:33.633Z,2.47
2023-01-30T16:37:26.136Z,2.23
2023-01-30T16:40:16.499Z,3.37
2023-01-30T16:42:59.179Z,2.63
2023-01-30T16:45:36.524Z,2.87
2023-01-30T16:48:24.660Z,3.30
2023-01-30T16:51:02.419Z,2.50
2023-01-30T16:53:32.763Z,3.33
2023-01-30T16:56:07.726Z,2.83
2023-01-30T16:58:37.274Z,3.83
2023-01-30T17:01:09.190Z,2.83
2023-01-30T17:03:42.429Z,3.03
2023-01-30T17:06:26.277Z,2.50
2023-01-30T17:08:56.557Z,4.23
2023-01-30T17:11:31.851Z,3.53
2023-01-30T17:14:10.904Z,3.50
2023-01-30T17:16:41.308Z,4.13
2023-01-30T17:19:08.270Z,4.30
2023-01-30T17:21:50.995Z,3.50
2023-01-30T17:24:22.040Z,3.70
2023-01-30T17:26:59.334Z,3.07
2023-01-30T17:29:41.931Z,3.33
2023-01-30T17:32:13.723Z,3.10
2023-01-30T17:34:41.479Z,4.13
2023-01-30T17:37:17.927Z,3.90
2023-01-30T17:39:45.450Z,3.63
2023-01-30T17:42:13.384Z,3.07
2023-01-30T17:44:41.177Z,3.23
2023-01-30T17:47:11.568Z,3.10
2023-01-30T17:49:38.844Z,3.60
2023-01-30T17:52:06.080Z,3.93
2023-01-30T17:54:32.930Z,3.87
2023-01-30T17:57:05.757Z,3.33
2023-01-30T17:59:33.492Z,3.57
2023-01-30T18:02:00.712Z,3.23
2023-01-30T18:04:27.653Z,3.67
2023-01-30T18:07:02.211Z,3.10
2023-01-30T18:09:30.003Z,3.13
2023-01-30T18:11:57.123Z,3.70
2023-01-30T18:14:24.001Z,3.70
2023-01-30T18:16:51.194Z,3.47
2023-01-30T18:19:18.870Z,2.93
2023-01-30T18:21:45.790Z,3.70
2023-01-30T18:24:14.849Z,2.23
2023-01-30T18:26:42.637Z,4.27
2023-01-30T18:29:10.202Z,3.80
2023-01-30T18:31:38.536Z,4.00
2023-01-30T18:34:06.997Z,3.57
2023-01-30T18:36:35.755Z,3.33
2023-01-30T18:39:03.496Z,2.53
2023-01-30T18:41:30.908Z,2.97
2023-01-30T18:44:03.483Z,3.20
2023-01-30T18:46:30.954Z,3.20
2023-01-30T18:48:58.546Z,3.10
2023-01-30T18:51:28.634Z,3.70
2023-01-30T18:53:55.873Z,3.43
2023-01-30T18:56:31.334Z,3.30
2023-01-30T18:59:02.503Z,3.43
2023-01-30T19:01:31.802Z,4.70
2023-01-30T19:04:00.945Z,3.60
2023-01-30T19:06:29.330Z,3.80
2023-01-30T19:08:59.681Z,3.47
2023-01-30T19:11:45.484Z,3.47
2023-01-30T19:14:13.436Z,3.20
2023-01-30T19:16:41.161Z,3.73
2023-01-30T19:19:09.518Z,3.33
2023-01-30T19:21:36.878Z,3.40
2023-01-30T19:24:08.699Z,2.80
2023-01-30T19:26:35.854Z,4.07
2023-01-30T19:29:02.920Z,3.77
2023-01-30T19:31:30.003Z,2.83
2023-01-30T19:34:01.220Z,3.87
2023-01-30T19:36:31.766Z,3.50
2023-01-30T19:38:59.984Z,3.00
2023-01-30T19:41:29.582Z,3.63
2023-01-30T19:43:58.380Z,3.13
2023-01-30T19:46:26.253Z,3.13
2023-01-30T19:48:53.467Z,3.97
2023-01-30T19:51:26.551Z,3.37
2023-01-30T19:54:00.597Z,4.40
2023-01-30T19:56:30.350Z,4.20
2023-01-30T19:58:59.045Z,4.40
2023-01-30T20:01:30.908Z,3.77
2023-01-30T20:03:59.005Z,3.67
2023-01-30T20:06:31.964Z,4.47
2023-01-30T20:09:01.427Z,4.00
2023-01-30T20:11:29.336Z,4.57
2023-01-30T20:13:56.814Z,3.33
2023-01-30T20:16:27.481Z,3.60
2023-01-30T20:18:59.639Z,2.90
2023-01-30T20:21:29.709Z,3.27
2023-01-30T20:23:58.263Z,5.00
2023-01-30T20:26:28.274Z,3.63
2023-01-30T20:28:56.205Z,3.23
2023-01-30T20:31:25.486Z,3.67
2023-01-30T20:33:53.222Z,4.00
2023-01-30T20:36:20.861Z,3.20
2023-01-30T20:38:49.231Z,3.93
2023-01-30T20:41:22.247Z,3.23
2023-01-30T20:43:51.537Z,4.17
2023-01-30T20:46:21.284Z,3.43
2023-01-30T20:48:49.390Z,3.90
2023-01-30T20:51:19.213Z,3.33
2023-01-30T20:53:55.175Z,2.77
2023-01-30T20:56:24.121Z,4.07
2023-01-30T20:58:51.003Z,5.93
2023-01-30T21:01:21.603Z,4.47
2023-01-30T21:03:52.758Z,4.83
2023-01-30T21:06:42.501Z,4.20
2023-01-30T21:09:20.915Z,4.33
2023-01-30T21:11:49.340Z,3.77
2023-01-30T21:14:17.611Z,3.63
2023-01-30T21:16:45.408Z,3.13
2023-01-30T21:19:16.174Z,2.97
2023-01-30T21:21:53.415Z,3.20
2023-01-30T21:24:29.432Z,3.37
2023-01-30T21:26:56.852Z,3.97
2023-01-30T21:29:25.919Z,2.90
2023-01-30T21:31:54.317Z,2.97
2023-01-30T21:34:21.794Z,3.30
2023-01-30T21:37:09.393Z,3.70
2023-01-30T21:39:56.020Z,4.30
2023-01-30T21:42:41.834Z,3.40
2023-01-30T21:45:09.044Z,4.73
2023-01-30T21:47:37.004Z,3.93
2023-01-30T21:50:04.200Z,4.17
2023-01-30T21:52:33.189Z,4.50
2023-01-30T21:55:00.113Z,4.17
2023-01-30T21:57:26.970Z,4.50
2023-01-30T21:59:54.026Z,4.27
2023-01-30T22:02:21.259Z,3.70
2023-01-30T22:04:48.348Z,4.57
2023-01-30T22:07:15.181Z,4.83
2023-01-30T22:09:42.187Z,4.60
2023-01-30T22:12:11.350Z,4.23
2023-01-30T22:14:38.750Z,3.80
2023-01-30T22:17:06.026Z,3.60
2023-01-30T22:19:35.792Z,5.07
2023-01-30T22:22:03.348Z,4.07
2023-01-30T22:24:30.455Z,5.53
2023-01-30T22:26:57.701Z,5.17
2023-01-30T22:29:25.286Z,3.90
2023-01-30T22:31:52.234Z,4.47
2023-01-30T22:34:19.300Z,3.67
2023-01-30T22:36:47.982Z,3.63
2023-01-30T22:39:14.887Z,4.10
2023-01-30T22:41:42.098Z,3.70
2023-01-30T22:44:10.092Z,4.27
2023-01-30T22:46:39.642Z,3.97
2023-01-30T22:49:08.210Z,3.67
2023-01-30T22:51:40.653Z,4.23
2023-01-30T22:54:12.155Z,4.13
2023-01-30T22:56:41.548Z,4.30
2023-01-30T22:59:09.356Z,3.80
2023-01-30T23:01:39.343Z,3.73
2023-01-30T23:04:19.667Z,3.50
2023-01-30T23:06:47.312Z,3.70
2023-01-30T23:09:17.042Z,3.27
2023-01-30T23:12:09.077Z,3.57
2023-01-30T23:14:37.269Z,2.83
2023-01-30T23:17:25.280Z,3.20
2023-01-30T23:19:52.756Z,3.50
2023-01-30T23:22:19.731Z,4.00
2023-01-30T23:24:48.588Z,4.00
2023-01-30T23:27:15.631Z,3.47
2023-01-30T23:29:42.572Z,3.23
2023-01-30T23:32:09.449Z,3.43
2023-01-30T23:34:36.558Z,4.00
2023-01-30T23:37:03.481Z,3.53
2023-01-30T23:39:30.328Z,3.63
2023-01-30T23:41:57.104Z,3.67
2023-01-30T23:44:23.922Z,3.50
2023-01-30T23:46:50.712Z,3.13
2023-01-30T23:49:17.459Z,2.33
2023-01-30T23:51:44.963Z,3.43
2023-01-30T23:54:13.733Z,2.97
2023-01-30T23:56:43.822Z,3.87
2023-01-30T23:59:12.047Z,3.03
